Latest Coastal Weather Observations for Lucinda

IDQ60701

Issued at 10:51 pm EST Friday 21 July 2017 (issued every 10 minutes, with the page automatically refreshed every 10 minutes)

About coastal observations | Map of coastal stations | Coastal observations for QLD | Marine services | Other Formats
Station Details ID: 032141 Name: LUCINDA POINT Lat: -18.52 Lon: 146.39 Height: 10.0 m
Data from the previous 72 hours. | See also: Recent months at Lucinda
Date/Time
EST
Temp
°C
Wind Pressure Rain since
9am
mm
Weather Cloud Vis
km
Sea
Height
m
Swell
Dir  Spd
kts
Gust
kts
hPa Trend Height
m
Period
s
Dir
21/10:30pm 21.5 SE 6 10 1018.5 - 0.0 - - - - - - -
21/10:00pm 21.5 ESE 6 10 1018.6 - 0.0 - - - - - - -
21/09:30pm 21.5 SE 6 10 1018.6 - 0.0 - - - - - - -
21/09:00pm 21.5 ESE 5 9 1018.4 - 0.0 - - - - - - -
21/08:30pm 21.5 ESE 8 11 1018.1 - 0.0 - - - - - - -
21/08:00pm 21.5 ESE 9 12 1017.8 - 0.0 - - - - - - -
21/07:30pm 21.4 ESE 9 13 1017.5 - 0.0 - - - - - - -
21/07:00pm 21.3 ESE 8 12 1017.4 - 0.0 - - - - - - -
21/06:30pm 21.3 SE 7 11 1017.1 - 0.0 - - - - - - -
21/06:00pm 21.4 ESE 7 13 1016.8 - 0.0 - - - - - - -
21/05:30pm 21.5 SE 8 13 1016.6 - 0.0 - - - - - - -
21/05:00pm 22.1 SE 7 11 1016.3 - 0.0 - - - - - - -
21/04:30pm 21.9 SE 7 11 1016.0 - 0.0 - - - - - - -
21/04:00pm 22.0 SE 7 13 1015.7 - 0.0 - - - - - - -
21/03:30pm 22.1 ESE 7 11 1015.7 - 0.0 - - - - - - -
21/03:00pm 22.3 ESE 7 11 1015.8 - 0.0 - - - - - - -
21/02:30pm 22.6 SE 6 10 1016.0 - 0.0 - - - - - - -
21/02:00pm 22.3 SE 6 9 1016.3 - 0.0 - - - - - - -
21/01:30pm 22.2 SE 7 10 1016.6 - 0.0 - - - - - - -
21/01:00pm 22.6 SE 6 9 1016.9 - 0.0 - - - - - - -
21/12:30pm 21.8 SSE 5 7 1017.3 - 0.0 - - - - - - -
21/12:00pm 21.1 S 8 11 1018.0 - 0.0 - - - - - - -
21/11:30am 20.8 S 13 15 1018.4 - 0.0 - - - - - - -
21/11:00am 20.7 S 12 14 1018.9 - 0.0 - - - - - - -
21/10:30am 20.0 SSW 11 14 1019.0 - 0.0 - - - - - - -
21/10:00am 19.7 SSW 10 11 1018.7 - 0.0 - - - - - - -
21/09:30am 19.5 SSW 9 11 1018.5 - 0.0 - - - - - - -
21/09:00am 19.2 SW 10 11 1018.4 - 0.0 - - - - - - -
21/08:30am 19.0 SW 9 11 1018.1 - 0.0 - - - - - - -
21/08:00am 19.0 WSW 8 10 1017.7 - 0.0 - - - - - - -
21/07:30am 18.7 SW 8 9 1017.4 - 0.0 - - - - - - -
21/07:00am 18.3 SW 8 9 1017.1 - 0.0 - - - - - - -
21/06:30am 18.6 SW 9 10 1016.6 - 0.0 - - - - - - -
21/06:00am 18.3 SW 8 9 1016.4 - 0.0 - - - - - - -
21/05:30am 18.6 SW 9 10 1016.1 - 0.0 - - - - - - -
21/05:00am 18.6 SW 9 10 1015.9 - 0.0 - - - - - - -
21/04:30am 18.3 WSW 9 10 1016.1 - 0.0 - - - - - - -
21/04:00am 18.1 WSW 8 10 1016.1 - 0.0 - - - - - - -
21/03:30am 18.6 SW 11 12 1016.4 - 0.0 - - - - - - -
21/03:00am 18.4 SW 10 11 1016.3 - 0.0 - - - - - - -
21/02:30am 18.6 SW 10 11 1016.4 - 0.0 - - - - - - -
21/02:00am 18.3 WSW 9 10 1016.5 - 0.0 - - - - - - -
21/01:30am 18.7 WSW 10 11 1016.7 - 0.0 - - - - - - -
21/01:00am 18.7 SW 9 11 1016.9 - 0.0 - - - - - - -
21/12:30am 19.0 WSW 10 11 1017.0 - 0.0 - - - - - - -
21/12:00am 19.4 WSW 5 8 1016.9 - 0.0 - - - - - - -
 
Date/Time
EST
Temp
°C
Wind Pressure Rain since
9am
mm
Weather Cloud Vis
km
Sea
Height
m
Swell
Dir  Spd
kts
Gust
kts
hPa Trend Height
m
Period
s
Dir
20/11:30pm 21.5 E 7 9 1017.2 - 0.0 - - - - - - -
20/11:00pm 21.6 ENE 7 9 1017.3 - 0.0 - - - - - - -
20/10:30pm 21.6 E 8 11 1017.6 - 0.0 - - - - - - -
20/10:00pm 21.5 ESE 7 11 1017.7 - 0.0 - - - - - - -
20/09:30pm 21.4 ESE 7 11 1017.7 - 0.0 - - - - - - -
20/09:00pm 21.4 ESE 6 9 1017.6 - 0.0 - - - - - - -
20/08:30pm 21.4 ESE 5 10 1017.4 - 0.0 - - - - - - -
20/08:00pm 21.1 SE 6 11 1017.0 - 0.0 - - - - - - -
20/07:30pm 21.1 ESE 8 12 1016.7 - 0.0 - - - - - - -
20/07:00pm 21.2 ESE 7 10 1016.3 - 0.0 - - - - - - -
20/06:30pm 21.2 SE 7 13 1015.9 - 0.0 - - - - - - -
20/06:00pm 21.2 SE 8 13 1015.8 - 0.0 - - - - - - -
20/05:30pm 21.3 ESE 8 12 1015.7 - 0.0 - - - - - - -
20/05:00pm 21.5 ESE 7 13 1015.5 - 0.0 - - - - - - -
20/04:30pm 21.5 SE 7 12 1015.4 - 0.0 - - - - - - -
20/04:00pm 21.3 SE 8 14 1015.5 - 0.0 - - - - - - -
20/03:30pm 21.4 SSE 7 13 1015.4 - 0.0 - - - - - - -
20/03:00pm 21.6 SE 8 13 1015.6 - 0.0 - - - - - - -
20/02:30pm 22.1 ESE 7 11 1015.8 - 0.0 - - - - - - -
20/02:00pm 21.7 S 4 6 1016.3 - 0.0 - - - - - - -
20/01:30pm 21.2 S 5 8 1016.5 - 0.0 - - - - - - -
20/01:00pm 20.9 S 7 10 1016.9 - 0.0 - - - - - - -
20/12:30pm 20.7 S 11 13 1017.2 - 0.0 - - - - - - -
20/12:00pm 20.6 S 13 16 1017.7 - 0.0 - - - - - - -
20/11:30am 20.5 S 13 15 1018.0 - 0.0 - - - - - - -
20/11:00am 20.5 S 14 16 1018.3 - 0.0 - - - - - - -
20/10:30am 20.4 S 15 18 1018.5 - 0.0 - - - - - - -
20/10:00am 20.2 SSW 13 19 1018.6 - 0.0 - - - - - - -
20/09:30am 19.3 SSW 12 15 1018.4 - 0.0 - - - - - - -
20/09:00am 18.9 SW 12 14 1018.2 - 0.0 - - - - - - -
20/08:30am 20.6 S 17 21 1018.0 - 0.0 - - - - - - -
20/08:00am 20.7 S 21 24 1017.6 - 0.0 - - - - - - -
20/07:30am 20.7 S 21 25 1017.5 - 0.0 - - - - - - -
20/07:00am 20.7 S 20 23 1017.4 - 0.0 - - - - - - -
20/06:30am 20.9 S 20 24 1016.9 - 0.0 - - - - - - -
20/06:00am 21.0 S 21 26 1016.6 - 0.0 - - - - - - -
20/05:30am 21.1 S 21 25 1016.2 - 0.0 - - - - - - -
20/05:00am 21.4 S 19 23 1016.1 - 0.0 - - - - - - -
20/04:30am 21.6 S 21 27 1015.8 - 0.0 - - - - - - -
20/04:00am 21.9 S 21 25 1015.7 - 0.0 - - - - - - -
20/03:30am 22.1 S 23 28 1015.6 - 0.0 - - - - - - -
20/03:00am 22.3 S 18 26 1015.7 - 0.0 - - - - - - -
20/02:30am 22.5 S 21 26 1015.7 - 0.0 - - - - - - -
20/02:00am 22.9 S 21 24 1015.9 - 0.0 - - - - - - -
20/01:44am 23.0 S 20 22 1015.9 - 0.0 - - - - - - -
20/01:30am 20.9 SSW 8 15 1016.1 - 0.0 - - - - - - -
20/01:00am 20.4 WSW 9 11 1016.1 - 0.0 - - - - - - -
20/12:30am 20.5 SW 9 10 1016.2 - 0.0 - - - - - - -
20/12:00am 20.4 SW 9 11 1016.2 - 0.0 - - - - - - -
 
Date/Time
EST
Temp
°C
Wind Pressure Rain since
9am
mm
Weather Cloud Vis
km
Sea
Height
m
Swell
Dir  Spd
kts
Gust
kts
hPa Trend Height
m
Period
s
Dir
19/11:30pm 20.4 SW 9 10 1016.5 - 0.0 - - - - - - -
19/11:00pm 21.1 SW 7 7 1016.5 - 0.0 - - - - - - -
19/10:30pm 21.6 SW 6 7 1016.5 - 0.0 - - - - - - -
19/10:00pm 22.2 SW 6 7 1016.4 - 0.0 - - - - - - -
19/09:30pm 22.4 SW 6 7 1016.3 - 0.0 - - - - - - -
19/09:00pm 22.2 CALM 0 0 1016.2 - 0.0 - - - - - - -
19/08:30pm 22.3 NNW 4 5 1015.9 - 0.0 - - - - - - -
19/08:00pm 22.5 NNW 5 6 1015.4 - 0.0 - - - - - - -
19/07:30pm 22.7 N 6 7 1015.1 - 0.0 - - - - - - -
19/07:00pm 22.8 N 7 8 1014.7 - 0.0 - - - - - - -
19/06:30pm 22.9 N 8 9 1014.2 - 0.0 - - - - - - -
19/06:00pm 22.9 N 9 11 1013.8 - 0.0 - - - - - - -
19/05:30pm 23.3 N 9 11 1013.5 - 0.0 - - - - - - -
19/05:00pm 23.9 N 10 11 1013.3 - 0.0 - - - - - - -
19/04:30pm 24.0 N 9 11 1013.0 - 0.0 - - - - - - -
19/04:00pm 24.2 N 9 11 1013.0 - 0.0 - - - - - - -
19/03:30pm 24.1 NNE 7 9 1012.9 - 0.0 - - - - - - -
19/03:00pm 24.5 NNE 4 5 1012.9 - 0.0 - - - - - - -
19/02:30pm 24.7 ENE 3 5 1013.1 - 0.0 - - - - - - -
19/02:00pm 25.0 ESE 4 5 1013.2 - 0.0 - - - - - - -
19/01:30pm 25.3 SE 3 5 1013.7 - 0.0 - - - - - - -
19/01:00pm 24.7 SE 3 6 1014.4 - 0.0 - - - - - - -
19/12:30pm 23.3 S 4 5 1015.0 - 0.0 - - - - - - -
19/12:00pm 23.2 S 4 6 1015.7 - 0.0 - - - - - - -
19/11:30am 22.7 SSE 5 6 1016.0 - 0.0 - - - - - - -
19/11:00am 22.2 S 5 6 1016.2 - 0.0 - - - - - - -
19/10:30am 21.3 SSW 4 5 1016.7 - 0.0 - - - - - - -
19/10:00am 20.6 SSW 5 6 1017.0 - 0.0 - - - - - - -
19/09:30am 20.1 SSW 3 4 1017.2 - 0.0 - - - - - - -
19/09:00am 19.7 SW 4 5 1017.2 - 0.0 - - - - - - -
19/08:30am 19.3 WSW 6 8 1017.2 - 0.0 - - - - - - -
19/08:00am 19.2 WSW 7 8 1017.0 - 0.0 - - - - - - -
19/07:30am 19.1 WSW 8 8 1016.8 - 0.0 - - - - - - -
19/07:00am 19.0 WSW 8 9 1016.6 - 0.0 - - - - - - -
19/06:30am 19.0 SW 9 10 1016.5 - 0.0 - - - - - - -
19/06:00am 19.3 SW 8 9 1016.4 - 0.0 - - - - - - -
19/05:30am 19.1 WSW 8 9 1016.1 - 0.0 - - - - - - -
19/05:00am 19.6 SW 8 9 1016.1 - 0.0 - - - - - - -
19/04:30am 19.7 SW 11 11 1015.9 - 0.0 - - - - - - -
19/04:00am 19.7 SW 12 13 1016.0 - 0.0 - - - - - - -
19/03:30am 20.0 SW 13 14 1016.0 - 0.0 - - - - - - -
19/03:00am 19.6 SW 13 13 1016.1 - 0.0 - - - - - - -
19/02:30am 19.8 SW 11 12 1016.4 - 0.0 - - - - - - -
19/02:00am 20.0 SW 9 11 1016.6 - 0.0 - - - - - - -
19/01:30am 20.0 SW 10 11 1017.0 - 0.0 - - - - - - -
19/01:00am 20.2 WSW 10 11 1017.2 - 0.0 - - - - - - -
19/12:30am 20.0 SW 10 11 1017.5 - 0.0 - - - - - - -
19/12:00am 19.9 SW 10 11 1017.5 - 0.0 - - - - - - -
 
Date/Time
EST
Temp
°C
Wind Pressure Rain since
9am
mm
Weather Cloud Vis
km
Sea
Height
m
Swell
Dir  Spd
kts
Gust
kts
hPa Trend Height
m
Period
s
Dir
18/11:30pm 20.9 WSW 7 8 1017.6 - 0.0 - - - - - - -
18/11:00pm 21.7 NW 4 5 1017.7 - 0.0 - - - - - - -

Other Formats:

Comma delimited format used in spreadsheet applications
http://www.bom.gov.au/fwo/IDQ60701/IDQ60701.94295.axf

JavaScript Object Notation format (JSON) in row-major order
http://www.bom.gov.au/fwo/IDQ60701/IDQ60701.94295.json